Terminal Aerodrome Forecast
Issued by NWS Caribou, ME

Home | Current Version | Previous Version | Text Only | Print | Product List | Glossary On
Versions: 1 2 3 4 5 6 7 8 9 10 11 12 13 14 15 16 17 18 19 20 21
000
FTUS41 KCAR 231740
TAFBGR
TAF
KBGR 231740Z 2318/2418 20006KT P6SM SCT250
     FM240200 18004KT 2SM BR OVC003
     FM240400 18004KT 1/2SM -DZ FG OVC002
     FM241500 18010KT P6SM OVC008=

USA.gov is the U.S. government's official web portal to all federal, state and local government web resources and services.